Arden, Delaware
Current Conditions -  °F | °C
As of 4:51 AM on Friday 24 Oct 2014 (Local Time) from KILG Reporting Station
Overcast Overcast  
Wind Chill: 57°   Ceiling: 3400
Heat Index: 57°   Visibility: 10mi
Dew Point: 45°   Wind: 10mph
Humidity: 64%   Direction: 340°NNW
Pressure: 29.85"   Gusts: NA
Location:  39.81°N, 75.49°W
Report Text: KILG 240851Z 34009KT 10SM OVC034 14/07 A2985 RMK AO2 SLP109 T01390072 51005
Loading
Personal Weather Stations






























Interactive Weather Map
Tropical Storm Tracking
New forecast layout! Learn more

10-Day Weather Forecast

Advertisements
Track Severe Weather on mobile